Time;durP1;ratioP1;P1;durP2;ratioP2;P2;SDS_P1;SDS_P2;PMS_P1;PMS_P2;Temp;Humidity;BMP_temperature;BMP_pressure;BME280_temperature;BME280_humidity;BME280_pressure;Samples;Min_cycle;Max_cycle;Signal;HPM_P1;HPM_P2
2022/05/13 00:01:42;;;;;;;39.33;5.80;;;;;;;12.96;78.64;101715.59;5036755;28;20049;-79
2022/05/13 00:04:08;;;;;;;37.50;4.72;;;;;;;12.90;79.19;101713.59;5035070;28;20029;-79
2022/05/13 00:06:34;;;;;;;39.55;4.97;;;;;;;13.00;79.52;101709.81;5037667;28;20100;-77
2022/05/13 00:08:59;;;;;;;34.65;4.45;;;;;;;12.99;79.63;101705.44;5037132;28;20208;-78
2022/05/13 00:11:25;;;;;;;38.75;4.63;;;;;;;12.96;79.98;101709.34;5019077;28;20557;-80
2022/05/13 00:13:50;;;;;;;39.47;4.40;;;;;;;13.05;80.19;101702.03;5037671;28;20068;-79
2022/05/13 00:16:16;;;;;;;36.08;4.72;;;;;;;13.06;80.22;101695.59;5036721;28;20494;-77
2022/05/13 00:18:41;;;;;;;33.90;4.63;;;;;;;13.06;80.18;101701.84;5036070;28;20517;-79
2022/05/13 00:21:07;;;;;;;49.03;4.85;;;;;;;13.03;80.76;101701.34;5037209;28;20493;-80
2022/05/13 00:23:32;;;;;;;45.70;4.80;;;;;;;13.07;80.67;101700.00;5037253;28;20381;-79
2022/05/13 00:25:58;;;;;;;27.10;4.50;;;;;;;13.07;80.51;101702.69;5035679;28;20401;-80
2022/05/13 00:28:23;;;;;;;45.13;4.68;;;;;;;13.03;80.39;101702.19;5037791;28;20098;-78
2022/05/13 00:30:49;;;;;;;54.17;6.53;;;;;;;12.95;80.79;101689.59;5038328;28;20025;-78
2022/05/13 00:33:18;;;;;;;38.40;5.13;;;;;;;12.92;80.63;101687.22;5026977;28;20029;-79
2022/05/13 00:35:44;;;;;;;41.92;4.82;;;;;;;12.95;80.86;101689.59;5016231;28;20092;-78
2022/05/13 00:38:09;;;;;;;41.55;5.70;;;;;;;12.98;81.04;101684.81;5035136;28;20514;-78
2022/05/13 00:40:35;;;;;;;39.70;4.50;;;;;;;13.01;80.69;101693.44;5039470;28;20025;-77
2022/05/13 00:43:07;;;;;;;37.08;4.18;;;;;;;13.03;79.97;101690.53;5039995;28;20033;-76
2022/05/13 00:45:33;;;;;;;27.98;3.92;;;;;;;13.03;79.93;101683.28;5041550;28;20029;-78
2022/05/13 00:48:00;;;;;;;31.33;4.82;;;;;;;13.07;79.85;101681.91;5043355;28;20081;-78
2022/05/13 00:50:25;;;;;;;28.05;3.75;;;;;;;13.09;79.29;101674.47;5041610;28;20025;-77
2022/05/13 00:52:52;;;;;;;35.80;4.35;;;;;;;13.17;78.75;101677.13;5036590;28;20049;-77
2022/05/13 00:55:25;;;;;;;38.53;3.80;;;;;;;13.19;77.71;101685.03;5035726;28;20148;-78
2022/05/13 00:57:51;;;;;;;40.42;4.65;;;;;;;13.21;77.21;101683.00;5033784;28;20018;-78
2022/05/13 01:00:18;;;;;;;29.52;3.67;;;;;;;13.26;77.30;101674.38;5027455;28;20018;-79
2022/05/13 01:02:44;;;;;;;26.67;3.95;;;;;;;13.18;76.82;101673.38;5034954;28;20544;-78
2022/05/13 01:05:15;;;;;;;35.05;3.92;;;;;;;13.15;77.23;101681.03;5034536;28;20448;-79
2022/05/13 01:07:41;;;;;;;34.13;4.25;;;;;;;13.17;76.37;101665.47;5035113;28;20496;-78
2022/05/13 01:10:09;;;;;;;27.83;3.50;;;;;;;13.24;75.78;101673.69;5037313;28;20108;-79
2022/05/13 01:12:37;;;;;;;;;;;;;;;13.29;75.27;101680.28;5037619;28;20037;-80
2022/05/13 01:15:07;;;;;;;24.38;4.10;;;;;;;13.28;74.14;101678.59;5034464;28;20327;-78
2022/05/13 01:20:28;;;;;;;28.42;3.63;;;;;;;13.30;74.13;101671.16;5050126;28;20109;-77
2022/05/13 01:22:58;;;;;;;19.50;2.95;;;;;;;13.28;74.92;101673.19;5025327;28;20045;-76
2022/05/13 01:25:26;;;;;;;27.63;3.70;;;;;;;13.25;75.33;101673.53;5035128;28;20030;-75
2022/05/13 01:27:51;;;;;;;;;;;;;;;13.26;75.97;101672.53;5043058;28;20025;-77
2022/05/13 01:30:21;;;;;;;27.05;4.00;;;;;;;13.27;76.30;101671.53;5038126;28;20284;-78
2022/05/13 01:32:47;;;;;;;31.33;4.60;;;;;;;13.28;75.66;101667.78;5040869;28;20029;-80
2022/05/13 01:35:13;;;;;;;22.08;3.38;;;;;;;13.28;75.52;101666.94;5041124;28;20049;-78
2022/05/13 01:37:39;;;;;;;33.92;4.72;;;;;;;13.20;75.26;101665.13;5037308;28;20041;-79
2022/05/13 01:40:05;;;;;;;29.30;4.43;;;;;;;13.19;75.50;101668.81;5048039;28;20033;-77
2022/05/13 01:42:31;;;;;;;24.40;4.07;;;;;;;13.17;75.50;101673.59;5033769;28;20507;-77
2022/05/13 01:44:57;;;;;;;34.92;4.47;;;;;;;13.11;75.10;101675.16;5034917;28;20422;-78
2022/05/13 01:47:24;;;;;;;34.50;4.43;;;;;;;13.17;75.18;101676.28;5034198;28;20061;-79
2022/05/13 01:49:50;;;;;;;19.77;3.10;;;;;;;13.09;75.13;101682.59;5033879;28;20120;-79
2022/05/13 01:52:15;;;;;;;29.80;3.72;;;;;;;13.05;74.97;101681.25;5034000;28;20489;-79
2022/05/13 01:54:40;;;;;;;23.15;3.63;;;;;;;13.07;75.24;101672.97;5033661;28;20551;-79
2022/05/13 01:57:06;;;;;;;31.08;4.47;;;;;;;13.00;75.47;101670.13;5036728;28;20029;-78
2022/05/13 01:59:31;;;;;;;28.20;3.83;;;;;;;12.95;75.23;101670.69;5036997;28;20029;-80
2022/05/13 02:01:57;;;;;;;22.92;3.53;;;;;;;12.95;75.59;101665.28;5040056;28;20116;-78
2022/05/13 02:04:22;;;;;;;30.33;3.75;;;;;;;13.00;75.42;101658.47;5042305;28;20024;-80
2022/05/13 02:06:47;;;;;;;33.72;4.07;;;;;;;12.98;75.59;101665.91;5025446;28;20053;-79
2022/05/13 02:09:12;;;;;;;22.73;4.35;;;;;;;12.96;75.56;101656.13;5034985;28;20052;-78
2022/05/13 02:11:39;;;;;;;30.42;4.25;;;;;;;12.93;75.69;101656.50;5041031;28;20013;-79
2022/05/13 02:14:05;;;;;;;22.02;3.80;;;;;;;12.91;75.60;101655.81;5041288;28;20025;-78
2022/05/13 02:16:30;;;;;;;18.67;3.50;;;;;;;12.92;75.83;101662.06;5042431;28;20029;-79
2022/05/13 02:18:55;;;;;;;21.23;4.00;;;;;;;12.88;75.50;101649.94;5039596;28;20049;-78
2022/05/13 02:21:21;;;;;;;18.10;3.28;;;;;;;12.93;75.57;101661.91;5028985;28;20474;-79
2022/05/13 02:23:46;;;;;;;32.03;4.68;;;;;;;12.89;75.28;101660.56;5034220;28;20576;-79
2022/05/13 02:26:13;;;;;;;23.20;3.70;;;;;;;12.88;75.33;101667.00;5043360;28;20037;-77
2022/05/13 02:28:38;;;;;;;28.60;4.78;;;;;;;12.87;75.37;101654.47;5044303;28;20063;-77
2022/05/13 02:31:05;;;;;;;15.57;3.20;;;;;;;12.85;74.92;101647.56;5043161;28;20033;-77
2022/05/13 02:33:31;;;;;;;25.60;3.45;;;;;;;12.82;74.95;101635.28;5041890;28;20030;-79
2022/05/13 02:35:56;;;;;;;22.10;3.28;;;;;;;12.81;74.48;101644.41;5039060;28;20045;-77
2022/05/13 02:38:22;;;;;;;18.63;3.47;;;;;;;12.79;74.15;101638.31;5034645;28;20030;-77
2022/05/13 02:43:31;;;;;;;29.00;4.03;;;;;;;12.74;74.87;101649.69;5037969;28;20040;-80
2022/05/13 02:45:57;;;;;;;26.77;3.75;;;;;;;12.74;74.52;101640.72;5039927;28;20393;-79
2022/05/13 02:48:23;;;;;;;21.13;3.22;;;;;;;12.71;74.23;101654.56;5035041;28;20085;-76
2022/05/13 02:50:49;;;;;;;23.33;3.30;;;;;;;12.73;74.47;101649.84;5036895;28;20607;-79
2022/05/13 02:53:14;;;;;;;19.65;3.22;;;;;;;12.73;74.36;101644.44;5035018;28;20052;-82
2022/05/13 02:55:39;;;;;;;17.83;2.92;;;;;;;12.71;74.24;101646.47;5034591;28;20038;-77
2022/05/13 02:58:05;;;;;;;13.07;3.50;;;;;;;12.72;74.00;101642.78;5033385;28;21846;-79
2022/05/13 03:00:31;;;;;;;27.85;3.75;;;;;;;12.71;74.22;101654.56;5033657;28;20021;-79
2022/05/13 03:02:57;;;;;;;24.67;3.42;;;;;;;12.64;74.40;101645.50;5035445;28;20029;-80
2022/05/13 03:05:23;;;;;;;16.10;2.80;;;;;;;12.68;74.52;101647.66;5049839;28;20562;-79
2022/05/13 03:07:48;;;;;;;21.20;3.05;;;;;;;12.71;74.64;101659.97;5053542;28;20025;-80
2022/05/13 03:10:13;;;;;;;21.17;3.38;;;;;;;12.73;74.87;101652.53;5035375;28;20049;-78
2022/05/13 03:12:39;;;;;;;25.63;3.97;;;;;;;12.72;74.50;101645.47;5031641;28;20045;-78
2022/05/13 03:15:05;;;;;;;17.65;3.10;;;;;;;12.71;74.55;101651.88;5012905;28;20076;-77
2022/05/13 03:17:31;;;;;;;21.40;4.63;;;;;;;12.64;74.87;101648.22;5035499;28;20535;-77
2022/05/13 03:19:56;;;;;;;17.50;3.33;;;;;;;12.60;75.55;101641.47;5039768;28;20064;-78
2022/05/13 03:22:21;;;;;;;21.80;3.40;;;;;;;12.62;75.75;101653.78;5041035;28;20021;-79
2022/05/13 03:24:47;;;;;;;20.92;3.15;;;;;;;12.61;75.67;101654.81;5051684;28;20101;-79
2022/05/13 03:27:12;;;;;;;24.60;3.60;;;;;;;12.60;76.31;101657.66;5048369;28;20143;-80
2022/05/13 03:29:37;;;;;;;21.85;3.25;;;;;;;12.59;76.47;101661.41;5046837;28;20028;-79
2022/05/13 03:32:07;;;;;;;26.70;3.47;;;;;;;12.57;76.84;101663.44;5041936;28;20032;-77
2022/05/13 03:34:32;;;;;;;19.75;3.65;;;;;;;12.59;76.99;101667.63;5041641;28;20041;-79
2022/05/13 03:36:58;;;;;;;28.88;5.28;;;;;;;12.61;77.23;101656.63;5042672;28;20059;-78
2022/05/13 03:39:24;;;;;;;20.10;3.65;;;;;;;12.53;77.39;101662.91;5039195;28;20064;-78
2022/05/13 03:41:49;;;;;;;27.67;3.38;;;;;;;12.56;77.58;101665.28;5049709;28;20029;-78
2022/05/13 03:44:15;;;;;;;21.38;3.17;;;;;;;12.59;77.56;101658.69;5044315;28;20036;-78
2022/05/13 03:46:40;;;;;;;20.92;3.33;;;;;;;12.56;77.18;101665.28;5041800;28;20261;-77
2022/05/13 03:49:06;;;;;;;21.63;3.13;;;;;;;12.58;77.32;101662.41;5030095;28;20173;-78
2022/05/13 03:51:32;;;;;;;17.58;3.03;;;;;;;12.61;76.90;101662.03;5045837;28;20128;-79
2022/05/13 03:53:58;;;;;;;13.48;2.90;;;;;;;12.62;76.83;101667.28;5048912;28;20025;-78
2022/05/13 03:56:24;;;;;;;26.33;3.50;;;;;;;12.57;76.37;101656.16;5043191;28;20033;-78
2022/05/13 03:58:50;;;;;;;15.40;3.10;;;;;;;12.59;76.03;101656.00;5039453;28;20033;-78
2022/05/13 04:01:15;;;;;;;15.68;3.17;;;;;;;12.60;75.59;101663.06;5039889;28;20034;-77
2022/05/13 04:03:40;;;;;;;21.15;3.50;;;;;;;12.63;75.56;101668.13;5036877;28;20387;-78
2022/05/13 04:08:59;;;;;;;23.00;3.95;;;;;;;12.60;75.57;101674.72;5042564;28;20099;-79
2022/05/13 04:11:36;;;;;;;19.85;2.80;;;;;;;12.60;75.50;101663.91;5040675;28;20029;-79
2022/05/13 04:16:46;;;;;;;21.85;2.88;;;;;;;12.53;75.50;101671.00;5020720;28;20149;-77
2022/05/13 04:19:12;;;;;;;19.25;2.60;;;;;;;12.52;75.43;101672.88;5029417;28;20053;-77
2022/05/13 04:21:39;;;;;;;15.02;2.83;;;;;;;12.55;75.48;101674.38;5032649;28;20026;-78
2022/05/13 04:24:08;;;;;;;11.55;3.00;;;;;;;12.60;75.35;101665.78;5031566;28;20056;-78
2022/05/13 04:26:33;;;;;;;13.52;2.63;;;;;;;12.61;75.19;101672.84;5032438;28;20021;-78
2022/05/13 04:28:59;;;;;;;13.00;2.53;;;;;;;12.65;75.21;101675.03;5042342;28;20033;-77
2022/05/13 04:31:27;;;;;;;20.17;3.03;;;;;;;12.68;74.81;101679.25;5039296;28;20056;-79
2022/05/13 04:33:54;;;;;;;21.00;3.00;;;;;;;12.71;74.85;101679.72;5037931;28;20032;-79
2022/05/13 04:36:21;;;;;;;13.98;2.72;;;;;;;12.73;74.71;101684.97;5040303;28;20053;-80
2022/05/13 04:38:46;;;;;;;11.80;2.47;;;;;;;12.78;74.46;101679.03;5042248;28;20156;-81
2022/05/13 04:43:57;;;;;;;16.38;2.55;;;;;;;12.87;73.86;101686.06;5045681;28;20048;-80
2022/05/13 04:46:22;;;;;;;18.10;2.60;;;;;;;12.90;73.65;101691.13;5042032;28;20038;-78
2022/05/13 04:48:48;;;;;;;20.38;2.90;;;;;;;12.93;73.66;101699.72;5043073;28;20025;-80
2022/05/13 04:51:17;;;;;;;17.60;2.53;;;;;;;12.93;73.11;101698.88;5051783;28;20053;-78
2022/05/13 04:53:43;;;;;;;12.77;2.50;;;;;;;12.96;72.72;101701.22;5036586;28;20048;-78
2022/05/13 04:56:09;;;;;;;15.98;2.53;;;;;;;13.01;72.35;101708.81;5033029;28;20472;-79
2022/05/13 04:58:34;;;;;;;14.73;2.40;;;;;;;13.04;72.23;101713.88;5039750;28;20037;-80
2022/05/13 05:01:01;;;;;;;17.15;2.65;;;;;;;13.04;72.30;101713.88;5054353;28;20462;-81
2022/05/13 05:03:28;;;;;;;13.73;2.35;;;;;;;13.07;72.72;101725.16;5048635;28;20071;-78
2022/05/13 05:05:54;;;;;;;19.75;2.28;;;;;;;13.11;72.79;101714.81;5054049;28;20033;-81
2022/05/13 05:08:19;;;;;;;17.42;2.78;;;;;;;13.10;73.11;101713.16;5048463;28;20028;-80
2022/05/13 05:10:45;;;;;;;21.52;2.30;;;;;;;13.05;73.29;101724.47;5048004;28;20029;-80
2022/05/13 05:13:25;;;;;;;17.75;2.92;;;;;;;13.07;73.99;101727.84;5056670;28;20027;-80
2022/05/13 05:15:50;;;;;;;17.17;2.50;;;;;;;13.15;74.20;101738.63;5052808;28;20014;-79
2022/05/13 05:18:16;;;;;;;17.02;3.00;;;;;;;13.18;74.23;101740.13;5054702;28;20080;-79
2022/05/13 05:20:43;;;;;;;15.90;2.95;;;;;;;13.13;73.96;101739.81;5044204;28;20025;-78
2022/05/13 05:23:32;;;;;;;15.40;2.95;;;;;;;13.23;74.09;101739.59;5039490;28;20072;-79
2022/05/13 05:25:58;;;;;;;19.70;2.63;;;;;;;13.30;74.32;101746.03;5017523;28;20037;-77
2022/05/13 05:28:26;;;;;;;17.30;3.00;;;;;;;13.36;74.58;101737.19;5036253;28;20037;-78
2022/05/13 05:30:51;;;;;;;;;;;;;;;13.37;74.48;101742.41;5037311;28;20022;-78
2022/05/13 05:33:17;;;;;;;19.10;3.30;;;;;;;13.33;74.64;101730.28;5035677;28;19921;-77
2022/05/13 05:35:42;;;;;;;17.83;3.50;;;;;;;13.39;75.27;101745.78;5036864;28;20179;-78
2022/05/13 05:38:07;;;;;;;19.67;3.10;;;;;;;13.40;74.88;101741.19;5039427;28;20022;-76
2022/05/13 05:40:34;;;;;;;15.60;2.67;;;;;;;13.42;74.68;101751.84;5040170;28;20025;-77
2022/05/13 05:43:06;;;;;;;18.95;2.83;;;;;;;13.47;74.28;101742.19;5039876;28;20091;-77
2022/05/13 05:45:32;;;;;;;15.25;2.47;;;;;;;13.46;73.13;101756.75;5040351;28;20397;-78
2022/05/13 05:47:58;;;;;;;15.38;2.42;;;;;;;13.55;73.55;101761.06;5039872;28;20040;-78
2022/05/13 05:50:24;;;;;;;20.83;2.45;;;;;;;13.54;73.22;101755.84;5030581;28;20082;-78
2022/05/13 05:52:51;;;;;;;19.20;2.63;;;;;;;13.59;73.59;101761.56;5021755;28;20084;-79
2022/05/13 05:58:12;;;;;;;17.98;2.45;;;;;;;13.60;73.14;101763.22;5048130;28;20045;-78
2022/05/13 06:00:45;;;;;;;19.13;3.35;;;;;;;13.55;72.45;101782.69;5043730;28;20025;-79
2022/05/13 06:03:11;;;;;;;17.58;3.25;;;;;;;13.67;72.35;101776.91;5046631;28;20540;-80
2022/05/13 06:05:36;;;;;;;19.15;3.08;;;;;;;13.74;72.41;101767.00;5027626;28;20022;-80
2022/05/13 06:08:03;;;;;;;17.33;2.45;;;;;;;13.72;71.67;101783.44;5038019;28;20398;-78
2022/05/13 06:10:30;;;;;;;21.27;2.83;;;;;;;13.76;71.47;101784.75;5041134;28;20057;-80
2022/05/13 06:12:56;;;;;;;18.65;2.88;;;;;;;13.80;70.92;101783.38;5046433;28;20021;-80
2022/05/13 06:15:22;;;;;;;19.70;2.72;;;;;;;13.92;70.83;101788.38;5043607;28;20013;-78
2022/05/13 06:17:50;;;;;;;10.88;2.72;;;;;;;14.05;70.75;101784.03;5043679;28;20033;-78
2022/05/13 06:20:21;;;;;;;18.08;2.65;;;;;;;14.39;69.97;101779.16;5041633;28;20036;-78
2022/05/13 06:22:47;;;;;;;16.38;2.45;;;;;;;15.23;65.96;101784.34;5032742;28;20026;-79
2022/05/13 06:25:14;;;;;;;13.23;2.20;;;;;;;15.48;63.12;101795.69;5045318;28;20076;-79
2022/05/13 06:27:39;;;;;;;21.27;2.47;;;;;;;15.65;62.58;101788.16;5039706;28;20574;-81
2022/05/13 06:30:07;;;;;;;13.00;2.38;;;;;;;16.21;60.62;101793.75;5041195;28;20096;-79
2022/05/13 06:32:32;;;;;;;13.77;1.85;;;;;;;16.76;57.88;101796.66;5037725;28;20089;-79
2022/05/13 06:34:58;;;;;;;10.32;1.95;;;;;;;17.41;56.83;101797.22;5027615;28;20125;-81
2022/05/13 06:37:24;;;;;;;13.45;1.75;;;;;;;18.30;54.67;101804.31;5052256;28;20052;-79
2022/05/13 06:39:49;;;;;;;14.57;2.28;;;;;;;18.27;53.34;101791.09;5036918;28;20038;-80
2022/05/13 06:42:16;;;;;;;18.30;2.85;;;;;;;19.21;52.02;101804.38;5039265;28;20085;-79
2022/05/13 06:44:42;;;;;;;18.50;3.03;;;;;;;20.28;49.73;101814.69;5042041;28;20037;-78
2022/05/13 06:47:08;;;;;;;14.55;2.50;;;;;;;20.46;48.43;101816.63;5042390;28;20041;-79
2022/05/13 06:49:34;;;;;;;12.70;2.17;;;;;;;20.42;46.96;101815.41;5031993;28;20037;-78
2022/05/13 06:52:01;;;;;;;14.48;2.03;;;;;;;20.37;46.30;101818.81;5027335;28;20018;-79
2022/05/13 06:54:26;;;;;;;11.63;2.53;;;;;;;20.56;47.42;101817.00;5032595;28;20033;-79
2022/05/13 06:56:54;;;;;;;17.02;2.55;;;;;;;20.54;44.87;101816.41;5034457;28;20025;-78
2022/05/13 06:59:20;;;;;;;14.98;1.95;;;;;;;20.57;45.21;101829.63;5030245;28;20037;-80
2022/05/13 07:01:45;;;;;;;13.35;1.95;;;;;;;20.27;45.65;101822.03;5029549;28;20036;-81
2022/05/13 07:04:11;;;;;;;18.17;2.85;;;;;;;20.42;46.04;101826.34;5039425;28;20025;-79
2022/05/13 07:06:36;;;;;;;15.10;2.72;;;;;;;20.09;47.04;101831.03;5039584;28;20052;-80
2022/05/13 07:09:02;;;;;;;13.20;2.25;;;;;;;20.13;47.68;101836.88;5037851;28;20116;-78
2022/05/13 07:11:27;;;;;;;18.48;2.70;;;;;;;19.42;49.14;101827.78;5036572;28;20033;-80
2022/05/13 07:13:52;;;;;;;19.90;2.78;;;;;;;19.47;48.75;101830.72;5031816;28;20033;-79
2022/05/13 07:16:18;;;;;;;20.60;2.97;;;;;;;19.37;49.30;101841.25;5026971;28;20021;-79
2022/05/13 07:18:46;;;;;;;18.67;3.08;;;;;;;19.30;49.88;101835.84;5038863;28;20025;-77
2022/05/13 07:21:11;;;;;;;14.20;2.28;;;;;;;18.22;51.34;101829.91;5034116;28;20033;-79
2022/05/13 07:23:37;;;;;;;15.95;2.67;;;;;;;18.39;52.06;101843.94;5037900;28;20037;-80
2022/05/13 07:26:02;;;;;;;15.40;2.40;;;;;;;18.41;52.75;101836.41;5041964;28;20033;-79
2022/05/13 07:28:27;;;;;;;16.27;2.53;;;;;;;18.45;52.31;101843.09;5035528;28;20034;-79
2022/05/13 07:30:53;;;;;;;16.33;2.63;;;;;;;18.46;52.94;101844.78;5026558;28;20109;-80
2022/05/13 07:33:20;;;;;;;15.68;2.55;;;;;;;18.68;53.19;101850.84;5026937;28;20036;-81
2022/05/13 07:35:45;;;;;;;18.15;3.03;;;;;;;18.38;52.33;101848.56;5018735;28;20053;-79
2022/05/13 07:38:11;;;;;;;18.25;2.42;;;;;;;18.55;51.86;101848.97;5025683;28;20034;-79
2022/05/13 07:43:20;;;;;;;14.38;2.60;;;;;;;19.96;48.22;101852.97;5031600;28;20072;-79
2022/05/13 07:45:46;;;;;;;19.92;2.85;;;;;;;20.21;47.05;101861.22;5037109;28;20034;-79
2022/05/13 07:48:11;;;;;;;16.10;2.33;;;;;;;20.12;47.49;101857.91;5016835;28;20029;-80
2022/05/13 07:50:37;;;;;;;22.10;2.72;;;;;;;20.97;45.29;101862.88;5017737;28;20037;-80
2022/05/13 07:53:02;;;;;;;17.25;2.40;;;;;;;20.49;44.80;101854.50;5018508;28;20040;-76
2022/05/13 07:55:27;;;;;;;20.00;2.47;;;;;;;20.82;44.88;101859.66;5022393;28;20110;-80
2022/05/13 07:57:53;;;;;;;14.57;2.70;;;;;;;20.76;44.88;101871.53;5020988;28;20068;-79
2022/05/13 08:00:32;;;;;;;13.98;2.72;;;;;;;20.56;44.89;101867.06;5019334;28;20137;-79
2022/05/13 08:03:01;;;;;;;14.70;1.95;;;;;;;20.84;44.07;101868.50;5018440;28;20030;-79
2022/05/13 08:05:31;;;;;;;10.00;2.67;;;;;;;21.27;44.03;101873.09;5015815;28;20033;-80
2022/05/13 08:08:02;;;;;;;17.33;2.67;;;;;;;20.35;44.72;101868.28;5017969;28;20075;-81
2022/05/13 08:10:28;;;;;;;13.57;2.28;;;;;;;20.72;44.38;101871.16;5018294;28;20137;-80
2022/05/13 08:12:53;;;;;;;16.73;3.03;;;;;;;21.10;44.36;101881.06;5017424;28;20093;-80
2022/05/13 08:15:19;;;;;;;21.52;2.72;;;;;;;21.19;44.03;101867.91;5019786;28;20038;-80
2022/05/13 08:17:44;;;;;;;18.73;2.60;;;;;;;20.44;45.49;101878.94;5020671;28;20683;-80
2022/05/13 08:20:10;;;;;;;17.20;3.45;;;;;;;20.54;44.89;101874.66;5023448;28;20026;-80
2022/05/13 08:22:36;;;;;;;13.80;2.25;;;;;;;20.98;43.84;101880.13;5022622;28;20029;-79
2022/05/13 08:25:01;;;;;;;17.38;2.60;;;;;;;21.27;43.67;101878.56;5020716;28;20041;-79
2022/05/13 08:27:26;;;;;;;23.83;3.85;;;;;;;21.11;44.29;101885.47;5004164;28;20025;-77
2022/05/13 08:29:52;;;;;;;25.90;3.55;;;;;;;21.56;43.38;101876.16;5020812;28;20026;-80
2022/05/13 08:32:17;;;;;;;25.65;3.05;;;;;;;21.58;43.05;101877.59;5021049;28;20072;-78
2022/05/13 08:34:42;;;;;;;17.50;2.90;;;;;;;21.93;42.06;101885.13;5020377;28;20037;-82
2022/05/13 08:37:07;;;;;;;17.30;2.78;;;;;;;21.52;42.33;101889.47;5033758;28;20033;-81
2022/05/13 08:39:33;;;;;;;15.85;2.53;;;;;;;22.43;40.62;101881.25;5020312;28;20034;-81
2022/05/13 08:42:22;;;;;;;12.07;2.65;;;;;;;22.57;40.23;101900.00;5021865;28;20032;-79
2022/05/13 08:44:49;;;;;;;15.88;3.10;;;;;;;22.25;42.04;101901.34;5022095;28;20026;-79
2022/05/13 08:47:23;;;;;;;19.85;3.30;;;;;;;22.18;41.64;101906.09;5021637;28;20095;-80
2022/05/13 08:49:55;;;;;;;21.00;2.83;;;;;;;22.06;41.97;101909.59;5032459;28;20009;-80
2022/05/13 08:55:33;;;;;;;25.30;3.30;;;;;;;21.48;43.12;101919.25;5031510;28;20049;-79
2022/05/13 08:58:00;;;;;;;15.45;2.90;;;;;;;21.57;43.36;101921.66;5025538;28;20022;-80
2022/05/13 09:00:46;;;;;;;21.45;3.22;;;;;;;21.61;43.11;101923.69;5021630;28;20022;-81
2022/05/13 09:03:22;;;;;;;15.32;2.80;;;;;;;21.54;43.38;101922.97;5022515;28;20030;-80
2022/05/13 09:06:06;;;;;;;17.50;2.57;;;;;;;21.84;41.68;101922.16;5016912;28;20350;-79
2022/05/13 09:08:33;;;;;;;18.75;2.70;;;;;;;21.94;42.73;101921.63;5017710;28;20025;-80
2022/05/13 09:11:31;;;;;;;24.52;3.08;;;;;;;22.34;41.44;101927.41;5018123;28;20029;-79
2022/05/13 09:14:18;;;;;;;22.50;3.15;;;;;;;22.12;41.06;101930.63;5018570;28;20061;-80
2022/05/13 09:17:11;;;;;;;17.23;2.70;;;;;;;21.10;42.80;101930.34;5017300;28;20040;-80
2022/05/13 09:19:51;;;;;;;20.88;3.00;;;;;;;21.52;42.68;101938.78;5017336;28;20026;-78
2022/05/13 09:22:17;;;;;;;27.08;2.88;;;;;;;21.48;42.71;101949.38;5017303;28;20124;-80
2022/05/13 09:24:42;;;;;;;22.77;2.67;;;;;;;21.76;42.16;101938.91;5019033;28;20060;-80
2022/05/13 09:27:07;;;;;;;18.27;2.75;;;;;;;21.96;41.16;101938.66;5020162;28;20116;-81
2022/05/13 09:29:44;;;;;;;23.35;3.58;;;;;;;22.29;40.78;101932.75;5020976;28;20334;-80
2022/05/13 09:32:28;;;;;;;24.20;3.63;;;;;;;22.73;41.32;101934.16;5023068;28;20156;-80
2022/05/13 09:35:05;;;;;;;15.88;3.28;;;;;;;22.90;39.61;101938.94;5022253;28;20057;-82
2022/05/13 09:37:37;;;;;;;23.38;2.95;;;;;;;23.11;39.28;101938.38;5023717;28;20362;-82
2022/05/13 09:40:08;;;;;;;14.38;2.40;;;;;;;23.61;38.54;101928.75;5023549;28;20022;-84
2022/05/13 09:42:39;;;;;;;20.80;2.88;;;;;;;23.10;38.91;101935.88;5021728;28;20034;-83
2022/05/13 09:45:26;;;;;;;16.42;2.58;;;;;;;23.19;38.31;101948.16;5020101;28;20018;-82
2022/05/13 09:48:11;;;;;;;18.77;2.88;;;;;;;22.72;39.82;101939.88;5019298;28;20120;-80
2022/05/13 09:50:38;;;;;;;22.05;3.33;;;;;;;23.27;38.76;101942.31;5021589;28;20064;-81
2022/05/13 09:53:09;;;;;;;16.33;3.25;;;;;;;23.38;38.98;101937.88;5019351;28;20037;-84
2022/05/13 09:55:38;;;;;;;19.52;3.20;;;;;;;23.17;38.24;101931.09;5032154;28;20153;-83
2022/05/13 09:58:08;;;;;;;11.38;2.80;;;;;;;23.12;38.98;101940.06;5037741;28;20035;-83
2022/05/13 10:00:39;;;;;;;20.55;2.83;;;;;;;23.45;38.02;101944.91;5027070;28;20026;-81
2022/05/13 10:03:20;;;;;;;21.63;3.25;;;;;;;23.15;38.06;101945.06;5017731;28;20042;-81
2022/05/13 10:06:01;;;;;;;23.92;3.42;;;;;;;23.32;38.72;101949.84;5015567;28;20069;-82
2022/05/13 10:08:27;;;;;;;18.65;3.33;;;;;;;23.81;37.42;101953.13;5015922;28;20165;-83
2022/05/13 10:13:58;;;;;;;21.15;2.92;;;;;;;24.02;36.21;101948.88;5023766;28;20041;-83
2022/05/13 10:16:28;;;;;;;17.25;3.05;;;;;;;24.48;35.99;101947.00;5033244;28;20048;-84
2022/05/13 10:18:59;;;;;;;19.65;3.08;;;;;;;23.93;35.99;101953.91;5023701;28;20115;-82
2022/05/13 10:21:30;;;;;;;11.40;2.58;;;;;;;22.39;39.01;101951.38;5004431;28;20030;-82
2022/05/13 10:24:06;;;;;;;13.50;3.20;;;;;;;22.91;38.16;101943.38;5032164;28;20010;-83
2022/05/13 10:26:35;;;;;;;22.02;3.25;;;;;;;23.33;37.99;101938.63;5031042;28;20042;-83
2022/05/13 10:29:13;;;;;;;16.73;2.65;;;;;;;23.85;36.46;101943.28;5031195;28;20018;-83
2022/05/13 10:31:42;;;;;;;19.70;2.97;;;;;;;23.96;36.96;101945.19;5032529;28;20033;-81
2022/05/13 10:34:07;;;;;;;24.83;3.35;;;;;;;24.31;36.25;101956.03;5030530;28;20038;-82
2022/05/13 10:36:40;;;;;;;22.07;2.87;;;;;;;24.24;36.02;101952.59;5031890;28;20105;-83
2022/05/13 10:39:22;;;;;;;19.58;2.70;;;;;;;24.20;36.18;101945.91;5015780;28;20284;-82
2022/05/13 10:41:58;;;;;;;27.15;4.00;;;;;;;24.34;35.51;101946.44;5015712;28;20030;-83
2022/05/13 10:44:29;;;;;;;23.65;3.33;;;;;;;23.77;37.56;101952.75;5021517;28;20026;-83
2022/05/13 10:46:58;;;;;;;24.65;3.50;;;;;;;23.20;38.44;101938.88;5020009;28;20029;-82
2022/05/13 10:49:31;;;;;;;14.65;2.97;;;;;;;23.10;38.97;101944.94;5023181;28;20053;-82
2022/05/13 10:52:34;;;;;;;21.52;3.22;;;;;;;23.07;38.65;101952.84;5025625;28;20034;-80
2022/05/13 10:55:06;;;;;;;22.15;3.63;;;;;;;22.63;40.16;101944.03;5023248;28;20034;-82
2022/05/13 10:58:16;;;;;;;29.80;3.90;;;;;;;21.79;41.13;101943.94;5022307;28;20025;-82
2022/05/13 11:00:49;;;;;;;26.00;4.60;;;;;;;22.02;40.88;101935.84;5027506;28;20025;-83
2022/05/13 11:03:47;;;;;;;26.75;4.60;;;;;;;22.00;42.01;101939.88;5010311;28;20064;-82
2022/05/13 11:06:42;;;;;;;23.80;3.45;;;;;;;22.00;42.31;101942.63;5021355;28;20037;-82
2022/05/13 11:09:38;;;;;;;19.25;3.83;;;;;;;21.96;42.55;101947.72;5003265;28;20049;-83
2022/05/13 11:12:33;;;;;;;30.38;3.67;;;;;;;22.09;43.11;101936.59;5029476;28;20045;-82
2022/05/13 11:15:04;;;;;;;20.73;3.47;;;;;;;21.95;41.55;101951.53;5030461;28;20053;-81
2022/05/13 11:17:44;;;;;;;23.70;3.72;;;;;;;22.31;42.00;101947.91;5029419;28;20052;-82
2022/05/13 11:20:51;;;;;;;18.15;3.20;;;;;;;22.50;41.65;101942.34;5031700;28;20034;-83
2022/05/13 11:25:54;;;;;;;20.60;3.33;;;;;;;23.00;39.67;101942.78;5028760;28;20044;-82
2022/05/13 11:26:52;;;;;;;29.73;3.53;;;;;;;23.79;38.97;101947.84;5036240;28;20022;-83
2022/05/13 11:29:50;;;;;;;21.35;2.95;;;;;;;24.04;38.20;101963.19;5035503;28;20022;-82
2022/05/13 11:32:39;;;;;;;27.38;4.03;;;;;;;23.50;38.45;101957.09;5011020;28;20042;-81
2022/05/13 11:35:24;;;;;;;19.52;2.80;;;;;;;23.13;39.40;101949.97;5024668;28;20050;-83
2022/05/13 11:37:52;;;;;;;27.33;3.88;;;;;;;23.72;38.96;101957.31;5028953;28;20124;-81
2022/05/13 11:40:21;;;;;;;17.92;2.83;;;;;;;23.90;38.37;101961.81;5030435;28;20076;-80
2022/05/13 11:43:18;;;;;;;23.83;3.40;;;;;;;24.26;36.94;101966.09;5031822;28;20038;-83
2022/05/13 11:45:53;;;;;;;20.23;3.50;;;;;;;23.28;38.28;101963.22;5028124;28;20014;-83
2022/05/13 11:48:22;;;;;;;24.63;3.72;;;;;;;22.42;40.58;101967.38;5035463;28;20041;-83
2022/05/13 11:50:48;;;;;;;26.10;4.30;;;;;;;22.27;41.04;101967.78;5038551;28;20035;-82
2022/05/13 11:53:47;;;;;;;23.45;3.25;;;;;;;22.04;41.44;101961.13;5018213;28;20105;-83